Time;durP1;ratioP1;P1;durP2;ratioP2;P2;SDS_P1;SDS_P2;PMS_P1;PMS_P2;Temp;Humidity;BMP_temperature;BMP_pressure;BME280_temperature;BME280_humidity;BME280_pressure;Samples;Min_cycle;Max_cycle;Signal;HPM_P1;HPM_P2
2021/12/28 00:00:11;;;;;;;;;1.00;1.00;;;;;10.94;90.72;98875.94;5120847;27;45352;-74
2021/12/28 00:02:37;;;;;;;;;3.33;1.67;;;;;10.94;90.88;98887.38;5120906;27;45298;-74
2021/12/28 00:05:03;;;;;;;;;1.33;1.33;;;;;10.94;90.93;98874.09;5120632;27;45308;-74
2021/12/28 00:07:28;;;;;;;;;0.67;0.67;;;;;10.91;90.62;98866.56;5119799;27;45254;-74
2021/12/28 00:09:53;;;;;;;;;1.67;1.67;;;;;10.92;90.73;98862.06;5119495;27;46061;-74
2021/12/28 00:12:19;;;;;;;;;0.33;0.33;;;;;10.85;90.64;98849.66;5121020;27;45157;-74
2021/12/28 00:15:03;;;;;;;;;1.00;0.00;;;;;10.89;90.85;98855.31;5119443;27;45294;-74
2021/12/28 00:20:13;;;;;;;;;0.00;0.00;;;;;10.85;91.26;98843.53;5120655;27;45270;-74
2021/12/28 00:22:38;;;;;;;;;0.00;0.00;;;;;10.83;91.29;98829.63;5119400;27;47214;-74
2021/12/28 00:25:05;;;;;;;;;0.00;0.00;;;;;10.85;90.85;98827.56;5120870;27;45146;-74
2021/12/28 00:27:30;;;;;;;;;0.33;0.33;;;;;10.78;91.11;98806.41;5120989;27;45407;-74
2021/12/28 00:29:55;;;;;;;;;0.33;0.00;;;;;10.84;91.09;98808.16;5120434;27;45183;-74
2021/12/28 00:32:21;;;;;;;;;0.00;0.00;;;;;10.82;90.99;98798.78;5119329;27;46892;-73
2021/12/28 00:34:47;;;;;;;;;0.00;0.00;;;;;10.84;91.10;98797.53;5120846;27;45199;-74
2021/12/28 00:37:12;;;;;;;;;0.00;0.00;;;;;10.89;90.66;98796.06;5114080;27;45390;-74
2021/12/28 00:39:38;;;;;;;;;0.00;0.00;;;;;10.91;90.82;98810.75;5100138;27;45537;-74
2021/12/28 00:42:04;;;;;;;;;1.00;0.33;;;;;10.83;91.01;98798.56;5099859;27;46081;-74
2021/12/28 00:44:29;;;;;;;;;0.00;0.00;;;;;10.90;90.85;98810.97;5099802;27;46103;-74
2021/12/28 00:46:55;;;;;;;;;0.67;0.67;;;;;10.77;90.87;98790.69;5102064;27;45330;-73
2021/12/28 00:49:20;;;;;;;;;0.67;0.00;;;;;10.88;90.77;98811.19;5102134;27;46197;-75
2021/12/28 00:51:45;;;;;;;;;0.00;0.00;;;;;10.80;91.12;98790.22;5103450;27;45293;-74
2021/12/28 00:54:11;;;;;;;;;2.33;0.00;;;;;10.86;91.19;98790.16;5101764;27;45394;-75
2021/12/28 00:56:36;;;;;;;;;0.00;0.00;;;;;10.90;90.90;98800.34;5103628;27;45313;-75
2021/12/28 00:59:02;;;;;;;;;0.00;0.00;;;;;10.92;91.10;98804.38;5103067;27;45451;-74
2021/12/28 01:01:27;;;;;;;;;0.00;0.00;;;;;10.92;91.07;98803.59;5103047;27;46090;-75
2021/12/28 01:03:52;;;;;;;;;0.00;0.00;;;;;10.91;91.18;98797.44;5103007;27;45301;-74
2021/12/28 01:06:18;;;;;;;;;1.33;0.00;;;;;10.87;90.88;98788.31;5103365;27;45140;-74
2021/12/28 01:08:43;;;;;;;;;0.00;0.00;;;;;10.93;90.88;98794.56;5103127;27;45463;-74
2021/12/28 01:11:08;;;;;;;;;0.00;0.00;;;;;10.91;90.90;98800.09;5103159;27;45194;-74
2021/12/28 01:13:34;;;;;;;;;0.00;0.00;;;;;10.87;90.85;98796.28;5101658;27;45477;-74
2021/12/28 01:16:00;;;;;;;;;0.00;0.00;;;;;10.89;91.17;98788.88;5103021;27;45312;-74
2021/12/28 01:18:25;;;;;;;;;0.00;0.00;;;;;10.91;90.93;98794.78;5102770;27;45188;-74
2021/12/28 01:20:51;;;;;;;;;1.00;1.00;;;;;10.93;91.26;98792.69;5102970;27;46019;-74
2021/12/28 01:23:17;;;;;;;;;0.00;0.00;;;;;10.94;91.02;98798.84;5102935;27;45309;-74
2021/12/28 01:25:43;;;;;;;;;0.00;0.00;;;;;10.91;91.30;98792.13;5103046;27;45454;-75
2021/12/28 01:28:10;;;;;;;;;0.00;0.00;;;;;10.89;91.26;98780.13;5101514;27;46147;-74
2021/12/28 01:30:36;;;;;;;;;0.00;0.00;;;;;10.93;91.49;98795.38;5102531;27;45300;-74
2021/12/28 01:33:02;;;;;;;;;0.00;0.00;;;;;10.90;91.12;98790.53;5101378;27;45324;-74
2021/12/28 01:35:31;;;;;;;;;0.00;0.00;;;;;10.92;91.41;98796.41;5102944;27;45323;-73
2021/12/28 01:37:58;;;;;;;;;0.00;0.00;;;;;10.93;91.55;98795.38;5115263;27;45506;-74
2021/12/28 01:40:27;;;;;;;;;0.00;0.00;;;;;10.93;91.59;98790.03;5123363;27;46832;-73
2021/12/28 01:43:12;;;;;;;;;0.00;0.00;;;;;10.98;91.66;98789.38;5123277;27;45199;-73
2021/12/28 01:45:57;;;;;;;;;0.00;0.00;;;;;10.94;91.93;98797.00;5121732;27;45355;-74
2021/12/28 01:48:30;;;;;;;;;0.00;0.00;;;;;10.99;91.90;98799.00;5123038;27;45467;-74
2021/12/28 01:51:07;;;;;;;;;0.67;0.00;;;;;11.03;91.83;98799.34;5123030;27;45346;-74
2021/12/28 01:53:33;;;;;;;;;0.00;0.00;;;;;11.04;92.11;98806.31;5122882;27;45216;-75
2021/12/28 01:56:04;;;;;;;;;0.00;0.00;;;;;11.01;92.07;98810.19;5122844;27;45319;-74
2021/12/28 01:58:29;;;;;;;;;0.67;0.67;;;;;10.96;91.99;98805.56;5122807;27;45315;-74
2021/12/28 02:00:56;;;;;;;;;0.00;0.00;;;;;10.96;91.87;98816.19;5121364;27;46819;-74
2021/12/28 02:03:23;;;;;;;;;0.00;0.00;;;;;10.97;92.24;98814.34;5122771;27;45396;-73
2021/12/28 02:05:49;;;;;;;;;0.00;0.00;;;;;10.98;92.13;98813.31;5121676;27;45311;-74
2021/12/28 02:08:15;;;;;;;;;0.00;0.00;;;;;10.85;92.41;98799.16;5122793;27;45315;-74
2021/12/28 02:10:44;;;;;;;;;0.00;0.00;;;;;10.93;92.47;98815.84;5121483;27;47518;-74
2021/12/28 02:13:10;;;;;;;;;0.00;0.00;;;;;11.03;92.34;98832.06;5122815;27;45391;-74
2021/12/28 02:15:37;;;;;;;;;0.00;0.00;;;;;11.06;92.40;98826.31;5122580;27;45284;-74
2021/12/28 02:18:05;;;;;;;;;0.00;0.00;;;;;11.14;92.29;98841.13;5122599;27;45324;-74
2021/12/28 02:20:31;;;;;;;;;0.00;0.00;;;;;11.21;92.45;98843.69;5122406;27;46295;-74
2021/12/28 02:22:56;;;;;;;;;0.00;0.00;;;;;11.28;92.66;98857.72;5122613;27;45386;-74
2021/12/28 02:25:22;;;;;;;;;0.00;0.00;;;;;11.34;92.37;98875.44;5122748;27;45203;-74
2021/12/28 02:27:48;;;;;;;;;0.00;0.00;;;;;11.39;92.58;98868.63;5101304;27;45508;-75
2021/12/28 02:30:18;;;;;;;;;0.00;0.00;;;;;11.43;92.45;98867.16;5089501;27;45255;-73
2021/12/28 02:32:46;;;;;;;;;0.00;0.00;;;;;11.51;92.13;98889.94;5081432;27;45448;-74
2021/12/28 02:35:16;;;;;;;;;0.00;0.00;;;;;11.55;91.64;98886.59;5081487;28;45141;-74
2021/12/28 02:37:42;;;;;;;;;0.00;0.00;;;;;11.52;91.90;98880.94;5102438;27;45312;-73
2021/12/28 02:40:10;;;;;;;;;0.00;0.00;;;;;11.61;91.71;98885.69;5122284;27;46245;-75
2021/12/28 02:42:36;;;;;;;;;0.00;0.00;;;;;11.59;91.53;98884.31;5122095;27;45248;-73
2021/12/28 02:45:10;;;;;;;;;0.00;0.00;;;;;11.63;91.48;98893.47;5122222;27;45190;-74
2021/12/28 02:47:41;;;;;;;;;0.00;0.00;;;;;11.62;91.40;98903.28;5120777;27;47165;-75
2021/12/28 02:50:11;;;;;;;;;0.00;0.00;;;;;11.64;91.42;98902.25;5120695;27;46922;-74
2021/12/28 02:52:38;;;;;;;;;0.00;0.00;;;;;11.72;91.35;98929.38;5120622;27;45233;-74
2021/12/28 02:55:13;;;;;;;;;0.00;0.00;;;;;11.69;90.80;98926.31;5120743;27;45357;-74
2021/12/28 02:57:56;;;;;;;;;0.00;0.00;;;;;11.71;91.02;98932.25;5120729;27;46019;-74
2021/12/28 03:00:45;;;;;;;;;0.00;0.00;;;;;11.71;90.92;98943.69;5121884;27;45246;-75
2021/12/28 03:03:25;;;;;;;;;0.00;0.00;;;;;11.75;90.85;98954.72;5121895;27;45302;-74
2021/12/28 03:05:53;;;;;;;;;0.00;0.00;;;;;11.65;90.98;98949.94;5122038;27;45267;-74
2021/12/28 03:08:22;;;;;;;;;0.00;0.00;;;;;11.61;90.63;98954.06;5120904;27;45451;-75
2021/12/28 03:10:48;;;;;;;;;0.00;0.00;;;;;11.67;90.54;98973.66;5121763;27;45297;-74
2021/12/28 03:13:16;;;;;;;;;0.00;0.00;;;;;11.54;90.53;98964.81;5121749;27;45170;-75
2021/12/28 03:15:42;;;;;;;;;0.00;0.00;;;;;11.60;90.53;98981.72;5121744;27;45153;-74
2021/12/28 03:18:08;;;;;;;;;0.00;0.00;;;;;11.56;90.70;98984.03;5120326;27;46262;-75
2021/12/28 03:20:33;;;;;;;;;0.00;0.00;;;;;11.42;90.43;98972.72;5120185;27;48264;-75
2021/12/28 03:22:59;;;;;;;;;0.00;0.00;;;;;11.62;90.60;99003.59;5121499;27;45319;-75
2021/12/28 03:25:24;;;;;;;;;0.00;0.00;;;;;11.59;90.29;98993.41;5121885;27;45332;-75
2021/12/28 03:27:50;;;;;;;;;0.33;0.00;;;;;11.68;90.41;98996.56;5120283;27;46203;-75
2021/12/28 03:30:16;;;;;;;;;0.00;0.00;;;;;11.60;90.34;98995.03;5119925;27;48004;-74
2021/12/28 03:32:43;;;;;;;;;0.00;0.00;;;;;11.67;90.16;99003.72;5121609;27;45286;-76
2021/12/28 03:35:10;;;;;;;;;0.00;0.00;;;;;11.59;90.20;98998.72;5121557;27;45251;-75
2021/12/28 03:37:37;;;;;;;;;0.00;0.00;;;;;11.68;89.85;99008.03;5111148;27;45223;-75
2021/12/28 03:40:06;;;;;;;;;0.33;0.00;;;;;11.68;89.90;99012.53;5100611;27;46495;-75
2021/12/28 03:42:32;;;;;;;;;0.00;0.00;;;;;11.62;89.93;99011.59;5100628;27;45332;-75
2021/12/28 03:44:57;;;;;;;;;0.33;0.00;;;;;11.57;89.65;99006.09;5100604;27;45316;-75
2021/12/28 03:47:23;;;;;;;;;0.33;0.33;;;;;11.55;89.53;99009.00;5099288;27;46857;-75
2021/12/28 03:49:48;;;;;;;;;0.00;0.00;;;;;11.61;89.80;99017.91;5099201;27;47065;-75
2021/12/28 03:52:14;;;;;;;;;0.00;0.00;;;;;11.61;89.86;99018.75;5099190;27;46124;-75
2021/12/28 03:54:39;;;;;;;;;0.00;0.00;;;;;11.63;89.88;99023.84;5100773;27;45250;-76
2021/12/28 03:57:05;;;;;;;;;0.00;0.00;;;;;11.57;89.76;99017.56;5100497;27;45267;-75
2021/12/28 03:59:31;;;;;;;;;0.33;0.00;;;;;11.60;89.88;99029.59;5100062;27;45454;-75
2021/12/28 04:01:57;;;;;;;;;0.00;0.00;;;;;11.65;89.57;99028.94;5100434;27;45209;-75
2021/12/28 04:04:23;;;;;;;;;0.33;0.00;;;;;11.67;89.90;99026.88;5100405;27;45216;-75
2021/12/28 04:06:49;;;;;;;;;0.00;0.00;;;;;11.68;89.87;99037.31;5099069;27;45911;-75
2021/12/28 04:09:21;;;;;;;;;1.00;0.00;;;;;11.65;90.12;99031.59;5100199;27;45978;-76
2021/12/28 04:11:47;;;;;;;;;0.00;0.00;;;;;11.61;89.86;99024.06;5100315;27;45193;-76
2021/12/28 04:14:12;;;;;;;;;0.00;0.00;;;;;11.65;89.62;99040.41;5100219;27;45287;-76
2021/12/28 04:16:38;;;;;;;;;0.33;0.33;;;;;11.67;89.91;99048.16;5098593;27;45589;-75
2021/12/28 04:19:04;;;;;;;;;1.00;0.33;;;;;11.62;89.82;99039.00;5102229;27;45366;-75
2021/12/28 04:21:31;;;;;;;;;1.00;0.00;;;;;11.57;89.61;99036.19;5103931;27;45381;-75
2021/12/28 04:23:57;;;;;;;;;0.00;0.00;;;;;11.67;89.64;99048.97;5103888;27;45320;-75
2021/12/28 04:26:25;;;;;;;;;0.33;0.33;;;;;11.61;89.68;99028.56;5103756;27;45301;-75
2021/12/28 04:28:51;;;;;;;;;3.00;0.33;;;;;11.62;89.71;99040.84;5102116;27;47392;-75
2021/12/28 04:31:16;;;;;;;;;0.33;0.33;;;;;11.67;89.86;99064.94;5103486;27;45214;-75
2021/12/28 04:33:42;;;;;;;;;0.00;0.00;;;;;11.66;89.91;99060.66;5103840;27;45757;-74
2021/12/28 04:36:12;;;;;;;;;0.00;0.00;;;;;11.64;89.42;99060.06;5103658;27;45450;-75
2021/12/28 04:38:39;;;;;;;;;0.33;0.33;;;;;11.68;89.37;99068.41;5120603;27;48008;-75
2021/12/28 04:41:05;;;;;;;;;0.00;0.00;;;;;11.66;89.72;99073.97;5122695;27;45460;-75
2021/12/28 04:43:31;;;;;;;;;1.33;0.33;;;;;11.61;89.70;99081.78;5124120;27;45205;-75
2021/12/28 04:45:56;;;;;;;;;2.00;1.00;;;;;11.70;89.80;99091.09;5123859;27;45203;-76
2021/12/28 04:48:22;;;;;;;;;0.00;0.00;;;;;11.72;89.68;99083.72;5123905;27;45961;-75
2021/12/28 04:50:47;;;;;;;;;0.00;0.00;;;;;11.70;89.52;99092.97;5124112;27;45259;-74
2021/12/28 04:53:13;;;;;;;;;0.00;0.00;;;;;11.71;89.43;99094.59;5124000;27;45253;-76
2021/12/28 04:55:42;;;;;;;;;0.00;0.00;;;;;11.72;89.58;99083.72;5122666;27;46331;-75
2021/12/28 04:58:08;;;;;;;;;1.00;0.00;;;;;11.65;89.45;99060.88;5123856;27;45376;-75
2021/12/28 05:00:34;;;;;;;;;0.33;0.33;;;;;11.68;89.72;99063.09;5123412;27;45196;-74
2021/12/28 05:03:00;;;;;;;;;0.00;0.00;;;;;11.69;89.68;99072.69;5123940;27;45355;-75
2021/12/28 05:05:25;;;;;;;;;0.00;0.00;;;;;11.76;89.54;99067.31;5123646;27;45180;-76
2021/12/28 05:07:51;;;;;;;;;0.33;0.33;;;;;11.77;89.17;99069.75;5122252;27;47655;-75
2021/12/28 05:10:17;;;;;;;;;0.33;0.33;;;;;11.74;89.48;99073.66;5123758;27;45209;-74
2021/12/28 05:12:43;;;;;;;;;0.00;0.00;;;;;11.82;89.24;99093.03;5123829;27;45271;-75
2021/12/28 05:15:10;;;;;;;;;0.00;0.00;;;;;11.77;89.24;99084.91;5123240;27;45433;-74
2021/12/28 05:17:36;;;;;;;;;0.00;0.00;;;;;11.84;88.96;99105.09;5122185;27;47126;-74
2021/12/28 05:20:02;;;;;;;;;0.00;0.00;;;;;11.84;89.00;99093.59;5123482;27;45325;-74
2021/12/28 05:22:28;;;;;;;;;0.00;0.00;;;;;11.79;88.93;99083.63;5123705;27;45345;-75
2021/12/28 05:24:53;;;;;;;;;0.00;0.00;;;;;11.84;89.08;99090.94;5123438;27;45440;-76
2021/12/28 05:27:18;;;;;;;;;0.33;0.33;;;;;11.80;88.74;99093.25;5123365;27;46108;-74
2021/12/28 05:29:44;;;;;;;;;0.00;0.00;;;;;11.87;88.65;99115.28;5122434;27;45222;-75
2021/12/28 05:32:09;;;;;;;;;0.00;0.00;;;;;11.86;88.70;99099.53;5123559;27;45365;-76
2021/12/28 05:34:35;;;;;;;;;0.00;0.00;;;;;11.87;89.04;99109.13;5123532;27;45190;-74
2021/12/28 05:37:00;;;;;;;;;0.00;0.00;;;;;11.91;88.57;99120.16;5118261;27;45481;-75
2021/12/28 05:39:25;;;;;;;;;0.00;0.00;;;;;11.89;88.38;99133.69;5101222;27;45244;-75
2021/12/28 05:41:51;;;;;;;;;0.00;0.00;;;;;11.95;88.31;99138.13;5101287;27;45292;-74
2021/12/28 05:44:17;;;;;;;;;0.33;0.33;;;;;11.96;88.06;99131.78;5102483;27;45451;-74
2021/12/28 05:46:44;;;;;;;;;0.00;0.00;;;;;11.92;88.29;99122.59;5102450;27;45650;-74
2021/12/28 05:49:09;;;;;;;;;0.00;0.00;;;;;12.00;88.24;99143.59;5102452;27;45299;-74
2021/12/28 05:51:34;;;;;;;;;0.33;0.33;;;;;11.97;87.82;99130.72;5102550;27;45295;-75
2021/12/28 05:54:00;;;;;;;;;0.00;0.00;;;;;11.95;88.03;99135.47;5102199;27;45297;-75
2021/12/28 05:56:25;;;;;;;;;0.00;0.00;;;;;11.98;87.94;99139.53;5100956;27;47688;-74
2021/12/28 05:58:51;;;;;;;;;1.00;0.00;;;;;11.95;87.83;99140.81;5102286;27;45294;-75
2021/12/28 06:01:17;;;;;;;;;1.67;0.00;;;;;11.97;87.49;99140.56;5102290;27;45446;-75
2021/12/28 06:03:42;;;;;;;;;0.00;0.00;;;;;12.03;87.60;99157.50;5100698;27;46985;-75
2021/12/28 06:06:07;;;;;;;;;0.67;0.33;;;;;11.98;87.41;99155.50;5102147;27;45342;-75
2021/12/28 06:08:33;;;;;;;;;1.00;0.67;;;;;11.97;87.16;99149.34;5102237;27;45346;-75
2021/12/28 06:10:59;;;;;;;;;0.33;0.33;;;;;12.05;87.32;99158.06;5102337;27;45259;-74
2021/12/28 06:13:25;;;;;;;;;1.33;1.00;;;;;11.96;86.94;99162.91;5101673;27;45542;-74
2021/12/28 06:15:50;;;;;;;;;0.00;0.00;;;;;12.00;86.65;99174.72;5100294;27;47028;-75
2021/12/28 06:18:16;;;;;;;;;0.00;0.00;;;;;12.05;85.99;99176.72;5101942;27;45282;-76
2021/12/28 06:20:41;;;;;;;;;0.33;0.33;;;;;11.99;86.45;99157.94;5102192;27;45152;-75
2021/12/28 06:23:07;;;;;;;;;0.00;0.00;;;;;12.05;86.24;99177.53;5097491;27;47116;-75
2021/12/28 06:25:33;;;;;;;;;0.33;0.33;;;;;11.94;85.87;99162.31;5091615;27;46292;-75
2021/12/28 06:27:58;;;;;;;;;0.67;0.67;;;;;11.98;86.09;99164.28;5080363;27;45468;-76
2021/12/28 06:30:24;;;;;;;;;0.00;0.00;;;;;12.05;85.54;99179.38;5079714;28;45266;-75
2021/12/28 06:32:49;;;;;;;;;0.00;0.00;;;;;12.06;85.77;99181.81;5081286;27;45250;-75
2021/12/28 06:35:15;;;;;;;;;0.00;0.00;;;;;12.13;85.66;99203.09;5081176;28;45482;-74
2021/12/28 06:37:40;;;;;;;;;1.00;0.00;;;;;12.13;85.48;99200.44;5100823;27;45459;-74
2021/12/28 06:40:07;;;;;;;;;0.00;0.00;;;;;12.06;85.09;99203.13;5122340;27;45740;-75
2021/12/28 06:42:32;;;;;;;;;0.67;0.33;;;;;12.15;85.34;99211.66;5119602;27;46193;-75
2021/12/28 06:44:58;;;;;;;;;2.00;0.00;;;;;12.14;85.18;99204.72;5120434;27;47475;-75
2021/12/28 06:47:24;;;;;;;;;0.33;0.00;;;;;12.15;84.71;99227.63;5092814;27;45532;-75
2021/12/28 06:49:49;;;;;;;;;2.00;1.00;;;;;12.17;84.92;99230.09;5100070;27;45257;-74
2021/12/28 06:52:15;;;;;;;;;1.00;0.00;;;;;12.11;84.34;99234.44;5101295;27;45215;-76
2021/12/28 06:54:40;;;;;;;;;0.00;0.00;;;;;12.14;84.21;99246.50;5099895;27;48195;-75
2021/12/28 06:57:08;;;;;;;;;2.33;1.00;;;;;12.17;84.54;99246.88;5101438;27;45200;-74
2021/12/28 06:59:42;;;;;;;;;1.33;1.33;;;;;12.13;84.38;99245.72;5100974;27;45376;-76
2021/12/28 07:02:12;;;;;;;;;1.00;0.67;;;;;12.09;84.22;99266.63;5101334;27;45457;-75
2021/12/28 07:04:38;;;;;;;;;0.00;0.00;;;;;12.06;83.90;99258.25;5099428;27;47417;-76
2021/12/28 07:07:04;;;;;;;;;0.00;0.00;;;;;12.04;83.85;99265.63;5099785;27;45825;-75
2021/12/28 07:09:30;;;;;;;;;0.00;0.00;;;;;11.94;84.08;99256.28;5101189;27;45526;-75
2021/12/28 07:11:55;;;;;;;;;0.00;0.00;;;;;12.03;83.99;99269.34;5101051;27;45237;-77
2021/12/28 07:14:20;;;;;;;;;1.00;1.00;;;;;11.98;84.14;99268.13;5100742;27;45223;-76
2021/12/28 07:16:46;;;;;;;;;0.33;0.33;;;;;11.96;83.71;99254.25;5101068;27;45190;-75
2021/12/28 07:19:11;;;;;;;;;1.33;1.33;;;;;12.01;83.63;99250.91;5099785;27;45222;-75
2021/12/28 07:21:38;;;;;;;;;0.00;0.00;;;;;11.97;84.03;99255.03;5099544;27;47015;-74
2021/12/28 07:24:08;;;;;;;;;1.00;1.00;;;;;12.01;83.50;99264.22;5099471;27;47304;-75
2021/12/28 07:26:35;;;;;;;;;1.00;1.00;;;;;12.02;84.01;99268.50;5101027;27;45260;-75
2021/12/28 07:29:01;;;;;;;;;0.67;0.67;;;;;12.00;83.68;99271.41;5099575;27;45373;-75
2021/12/28 07:31:27;;;;;;;;;1.00;1.00;;;;;12.00;83.55;99267.91;5099142;27;46320;-75
2021/12/28 07:33:53;;;;;;;;;2.33;1.00;;;;;11.99;83.59;99271.63;5100690;27;46129;-74
2021/12/28 07:36:19;;;;;;;;;2.00;1.67;;;;;11.96;83.79;99264.06;5100551;27;45339;-75
2021/12/28 07:38:44;;;;;;;;;0.67;0.00;;;;;11.92;83.60;99269.03;5120138;27;45588;-74
2021/12/28 07:41:10;;;;;;;;;1.33;1.00;;;;;11.93;83.24;99268.00;5121244;27;45390;-74
2021/12/28 07:43:35;;;;;;;;;0.67;0.33;;;;;11.92;82.77;99269.03;5121122;27;46166;-75
2021/12/28 07:46:00;;;;;;;;;1.67;1.00;;;;;11.94;82.69;99260.81;5120972;27;45304;-75
2021/12/28 07:48:26;;;;;;;;;2.33;2.33;;;;;11.96;82.72;99278.19;5121287;27;45538;-74
2021/12/28 07:50:51;;;;;;;;;1.67;1.67;;;;;11.96;82.57;99282.69;5121161;27;45360;-72
2021/12/28 07:53:17;;;;;;;;;2.00;2.00;;;;;11.99;83.32;99292.91;5120446;27;46239;-74
2021/12/28 07:55:42;;;;;;;;;2.33;2.00;;;;;11.92;82.50;99277.03;5110413;27;45343;-74
2021/12/28 07:58:08;;;;;;;;;1.33;1.33;;;;;11.99;82.58;99293.75;5089300;27;45337;-74
2021/12/28 08:00:33;;;;;;;;;2.67;2.33;;;;;11.99;82.69;99301.72;5086941;27;47005;-74
2021/12/28 08:03:01;;;;;;;;;2.00;1.00;;;;;11.94;82.68;99301.56;5097821;27;47220;-74
2021/12/28 08:05:27;;;;;;;;;0.67;0.67;;;;;12.00;83.05;99308.69;5099447;27;45304;-75
2021/12/28 08:07:52;;;;;;;;;1.00;1.00;;;;;12.00;82.83;99308.69;5100305;27;45288;-75
2021/12/28 08:10:21;;;;;;;;;3.67;1.33;;;;;12.02;83.03;99315.63;5095018;27;45418;-74
2021/12/28 08:12:47;;;;;;;;;2.00;1.00;;;;;12.03;83.05;99319.94;5086117;27;45338;-73
2021/12/28 08:15:12;;;;;;;;;2.00;1.67;;;;;12.04;82.67;99330.38;5083676;27;45459;-74
2021/12/28 08:17:38;;;;;;;;;2.00;0.33;;;;;11.97;82.80;99319.75;5079840;27;45291;-75
2021/12/28 08:20:06;;;;;;;;;1.33;1.33;;;;;11.93;83.13;99307.09;5079467;27;45540;-76
2021/12/28 08:22:31;;;;;;;;;4.00;1.33;;;;;12.02;83.43;99324.44;5079100;27;45471;-75
2021/12/28 08:24:59;;;;;;;;;0.00;0.00;;;;;11.93;83.90;99326.56;5095103;27;45328;-74
2021/12/28 08:27:24;;;;;;;;;0.67;0.33;;;;;11.98;83.94;99332.03;5079109;27;45565;-76
2021/12/28 08:29:50;;;;;;;;;2.67;1.00;;;;;11.93;83.99;99326.56;5079574;27;45229;-75
2021/12/28 08:32:15;;;;;;;;;1.00;0.67;;;;;11.83;84.32;99313.72;5080700;27;45325;-75
2021/12/28 08:34:40;;;;;;;;;1.33;0.33;;;;;11.93;84.62;99350.53;5096000;27;45306;-75
2021/12/28 08:37:06;;;;;;;;;2.33;1.33;;;;;11.91;84.56;99344.59;5091092;27;45321;-75
2021/12/28 08:39:31;;;;;;;;;1.33;0.33;;;;;11.90;84.91;99350.94;5119165;27;45331;-75
2021/12/28 08:41:56;;;;;;;;;1.33;1.33;;;;;11.89;85.28;99354.66;5117508;27;47203;-75
2021/12/28 08:44:22;;;;;;;;;2.67;0.67;;;;;11.85;86.44;99372.91;5121923;27;45445;-76
2021/12/28 08:46:47;;;;;;;;;4.00;2.33;;;;;11.83;87.02;99384.81;5122021;27;45582;-75
2021/12/28 08:49:12;;;;;;;;;3.33;1.33;;;;;11.77;87.05;99380.34;5119874;27;45646;-75
2021/12/28 08:51:39;;;;;;;;;2.00;1.00;;;;;11.71;87.24;99382.00;5118601;27;45678;-76
2021/12/28 08:54:04;;;;;;;;;3.33;3.00;;;;;11.63;87.72;99383.09;5120794;27;45345;-75
2021/12/28 08:56:29;;;;;;;;;3.33;3.00;;;;;11.63;88.45;99393.72;5122449;27;45241;-75
2021/12/28 08:58:55;;;;;;;;;2.00;2.00;;;;;11.58;88.21;99402.34;5122487;27;45205;-75
2021/12/28 09:01:21;;;;;;;;;3.67;1.67;;;;;11.64;88.81;99394.56;5121465;27;46077;-76
2021/12/28 09:03:47;;;;;;;;;1.67;1.67;;;;;11.65;88.67;99407.66;5120726;27;45223;-75
2021/12/28 09:06:13;;;;;;;;;1.00;1.00;;;;;11.66;88.89;99411.94;5122887;27;45243;-75
2021/12/28 09:08:38;;;;;;;;;5.00;3.33;;;;;11.61;89.12;99404.59;5124155;27;45302;-75
2021/12/28 09:11:03;;;;;;;;;4.67;2.67;;;;;11.61;88.82;99409.91;5116393;27;45445;-76
2021/12/28 09:13:29;;;;;;;;;5.33;3.33;;;;;11.65;89.26;99410.31;5103390;27;45247;-75
2021/12/28 09:15:54;;;;;;;;;4.00;2.67;;;;;11.66;89.41;99413.78;5103464;27;45405;-75
2021/12/28 09:18:19;;;;;;;;;3.33;1.67;;;;;11.68;89.27;99415.22;5101897;27;46096;-76
2021/12/28 09:20:45;;;;;;;;;2.00;1.67;;;;;11.65;89.49;99402.31;5102803;27;45661;-76
2021/12/28 09:23:12;;;;;;;;;3.00;3.00;;;;;11.69;89.08;99408.03;5086870;27;45325;-76
2021/12/28 09:25:38;;;;;;;;;3.67;3.00;;;;;11.73;89.46;99415.38;5083103;28;45518;-76
2021/12/28 09:28:05;;;;;;;;;2.67;1.33;;;;;11.74;89.03;99411.66;5083496;28;45268;-76
2021/12/28 09:30:31;;;;;;;;;2.00;2.00;;;;;11.77;89.30;99415.75;5082195;28;47923;-76
2021/12/28 09:32:56;;;;;;;;;4.33;2.33;;;;;11.77;89.23;99421.09;5084870;27;45436;-75
2021/12/28 09:35:22;;;;;;;;;3.00;1.00;;;;;11.77;89.05;99410.44;5084173;28;45458;-75
2021/12/28 09:37:47;;;;;;;;;1.33;1.33;;;;;11.79;88.82;99394.25;5099935;27;45885;-75
2021/12/28 09:40:14;;;;;;;;;1.00;1.00;;;;;11.76;88.13;99418.63;5099308;27;47077;-76
2021/12/28 09:42:41;;;;;;;;;4.00;3.67;;;;;11.80;88.04;99415.34;5080503;27;45366;-75
2021/12/28 09:45:09;;;;;;;;;1.33;0.33;;;;;11.82;87.43;99426.56;5115000;27;45295;-75
2021/12/28 09:47:35;;;;;;;;;4.00;2.67;;;;;11.72;86.65;99407.59;5082931;27;45220;-75
2021/12/28 09:50:00;;;;;;;;;3.33;2.67;;;;;11.84;87.03;99429.00;5082105;27;46060;-76
2021/12/28 09:52:26;;;;;;;;;2.00;1.00;;;;;11.78;86.47;99429.88;5081830;28;45237;-75
2021/12/28 09:54:51;;;;;;;;;4.00;2.00;;;;;11.76;85.92;99424.75;5082153;28;45246;-76
2021/12/28 09:57:18;;;;;;;;;2.00;1.33;;;;;11.81;85.77;99438.25;5080651;28;45836;-76
2021/12/28 09:59:44;;;;;;;;;2.00;1.33;;;;;11.86;85.01;99438.41;5081519;27;46167;-75
2021/12/28 10:02:11;;;;;;;;;2.67;1.33;;;;;11.89;84.75;99439.03;5081748;27;45346;-76
2021/12/28 10:05:00;;;;;;;;;8.00;6.00;;;;;11.89;84.86;99439.84;5081673;27;45306;-75
2021/12/28 10:07:29;;;;;;;;;3.00;1.67;;;;;11.90;83.96;99435.31;5081551;28;45226;-76
2021/12/28 10:09:55;;;;;;;;;8.00;3.00;;;;;11.91;83.56;99450.28;5081471;27;45394;-76
2021/12/28 10:12:29;;;;;;;;;3.33;2.67;;;;;11.86;83.42;99440.28;5081728;27;45337;-76
2021/12/28 10:14:58;;;;;;;;;6.33;4.00;;;;;11.90;82.85;99445.97;5081442;27;45380;-77
2021/12/28 10:17:25;;;;;;;;;3.67;3.33;;;;;11.90;82.42;99443.31;5081285;27;45220;-76
2021/12/28 10:19:51;;;;;;;;;0.67;0.33;;;;;11.89;80.92;99447.84;5083258;27;45313;-75
2021/12/28 10:22:26;;;;;;;;;2.00;2.00;;;;;11.92;81.07;99438.59;5100058;27;46122;-76
2021/12/28 10:25:14;;;;;;;;;1.33;1.00;;;;;11.85;80.31;99438.63;5092932;27;45255;-76
2021/12/28 10:28:10;;;;;;;;;7.67;5.00;;;;;11.93;78.31;99451.69;5089742;27;45525;-76
2021/12/28 10:30:42;;;;;;;;;1.67;1.00;;;;;11.89;77.73;99447.84;5098087;27;48355;-74
2021/12/28 10:33:19;;;;;;;;;3.67;2.33;;;;;11.91;76.92;99460.94;5098064;27;45269;-74
2021/12/28 10:35:58;;;;;;;;;6.67;5.33;;;;;11.91;76.76;99455.63;5097416;27;45373;-73
2021/12/28 10:38:29;;;;;;;;;7.00;5.00;;;;;11.87;76.49;99450.72;5114064;27;45484;-74
2021/12/28 10:40:58;;;;;;;;;5.67;4.67;;;;;12.02;75.60;99465.56;5120622;27;48052;-74
2021/12/28 10:43:29;;;;;;;;;5.33;5.00;;;;;12.03;76.39;99456.53;5095288;27;45369;-74
2021/12/28 10:46:02;;;;;;;;;4.33;3.33;;;;;12.07;74.79;99475.59;5082597;27;45318;-76
2021/12/28 10:48:34;;;;;;;;;4.67;3.67;;;;;12.05;74.25;99458.97;5080944;28;45364;-74
2021/12/28 10:51:05;;;;;;;;;2.00;2.00;;;;;12.05;73.81;99448.34;5095962;27;46978;-74
2021/12/28 10:53:44;;;;;;;;;4.67;1.00;;;;;12.14;72.37;99472.88;5078692;28;45441;-74
2021/12/28 10:56:10;;;;;;;;;6.00;4.00;;;;;12.22;72.81;99475.31;5081050;27;45280;-74
2021/12/28 10:58:41;;;;;;;;;6.00;4.67;;;;;12.19;72.40;99473.88;5096515;27;45553;-76
2021/12/28 11:01:28;;;;;;;;;4.00;3.33;;;;;12.27;73.28;99474.66;5093880;27;46818;-74
2021/12/28 11:03:54;;;;;;;;;3.33;3.33;;;;;12.33;72.32;99482.59;5078165;28;45418;-74
2021/12/28 11:06:30;;;;;;;;;7.00;3.33;;;;;12.35;72.18;99490.34;5079043;27;45378;-74
2021/12/28 11:09:08;;;;;;;;;4.00;3.00;;;;;12.38;72.71;99495.25;5095958;27;46896;-74
2021/12/28 11:11:35;;;;;;;;;6.33;3.33;;;;;12.39;73.25;99496.09;5096261;27;45432;-74
2021/12/28 11:14:06;;;;;;;;;8.00;5.00;;;;;12.38;73.13;99503.25;5079034;28;45389;-74
2021/12/28 11:16:33;;;;;;;;;8.33;7.00;;;;;12.35;72.98;99498.34;5096357;27;45251;-74
2021/12/28 11:19:04;;;;;;;;;6.00;6.00;;;;;12.36;72.43;99499.97;5078946;28;45846;-74
2021/12/28 11:21:51;;;;;;;;;5.33;5.00;;;;;12.35;72.26;99503.69;5096015;27;47803;-74
2021/12/28 11:24:17;;;;;;;;;5.67;5.00;;;;;12.35;72.32;99511.66;5079074;27;45251;-74
2021/12/28 11:26:48;;;;;;;;;4.67;3.00;;;;;12.29;72.81;99499.22;5079189;28;45324;-74
2021/12/28 11:29:20;;;;;;;;;8.00;6.00;;;;;12.34;73.03;99504.72;5077990;28;46312;-74
2021/12/28 11:31:51;;;;;;;;;5.67;3.67;;;;;12.39;72.72;99515.53;5095938;27;47700;-74
2021/12/28 11:34:30;;;;;;;;;5.00;5.00;;;;;12.48;73.21;99524.91;5096045;27;45308;-73
2021/12/28 11:36:58;;;;;;;;;7.00;4.00;;;;;12.61;72.72;99531.16;5103677;27;45374;-74